M I D A S
Marine Information and Data Acquisition System
Tripno 1250 of the Zeeleeuw from 2007-04-23 07:07:39 to 2007-04-23 14:47:49
Back to CruiseResearch ActivitiesStationsMapUnderway DataData graphs

EquipmentUnitsComment
TimeDGPSUTC
LatitudeDGPSDM.mWGS84
LongitudeDGPSDM.mWGS84
HeadingGyrodeg 
SOGDGPSknotsSpeed over ground
COGDGPSdegCourse over ground
DepthEcho soundermeters200 kHz
Missing or incorrect values are displayed as -999
Navigation data collected by the RV Zeeleeuw from 2007-04-23 06:44:59 to 2007-04-23 15:01:30
                                                                                    Next 1000 lines
Time Latitude Longitude Heading SOG COG Depth
2007-04-23 06:45:09 51°13.6 2°56.096 111.8 1 285 6.8
2007-04-23 06:45:14 51°13.601 2°56.093 111.7 1.2 291 6.7
2007-04-23 06:45:19 51°13.601 2°56.09 111.7 1.5 286 6.7
2007-04-23 06:45:24 51°13.602 2°56.086 111.9 1.8 292 6.8
2007-04-23 06:45:29 51°13.603 2°56.082 112.2 2 290 5.4
2007-04-23 06:45:34 51°13.604 2°56.078 112.8 2.1 292 -999
2007-04-23 06:45:39 51°13.605 2°56.073 113.8 2 292 -999
2007-04-23 06:45:44 51°13.607 2°56.07 114.6 1.5 294 -999
2007-04-23 06:45:49 51°13.607 2°56.069 115.8 0.5 294 -999
2007-04-23 06:45:54 51°13.608 2°56.071 118.3 0.6 116 -999
2007-04-23 06:45:59 51°13.607 2°56.073 123.3 1.1 117 -999
2007-04-23 06:46:04 51°13.606 2°56.075 129.1 1 127 -999
2007-04-23 06:46:09 51°13.605 2°56.077 133.2 1.1 120 -999
2007-04-23 06:46:14 51°13.604 2°56.079 135.5 1.1 127 -999
2007-04-23 06:46:19 51°13.603 2°56.081 137.2 1.2 126 -999
2007-04-23 06:46:24 51°13.602 2°56.083 138.5 1.2 130 -999
2007-04-23 06:46:29 51°13.601 2°56.085 139.7 1.2 128 -999
2007-04-23 06:46:34 51°13.6 2°56.087 140.8 1.2 133 -999
2007-04-23 06:46:39 51°13.599 2°56.089 142 1.2 131 -999
2007-04-23 06:46:44 51°13.597 2°56.091 142.9 1.2 135 4.6
2007-04-23 06:46:49 51°13.596 2°56.093 143.7 1.2 133 4.7
2007-04-23 06:46:54 51°13.595 2°56.094 144.4 1.1 138 4.5
2007-04-23 06:46:59 51°13.594 2°56.096 145.2 1.1 135 -999
2007-04-23 06:47:04 51°13.593 2°56.097 146.1 1.1 141 -999
2007-04-23 06:47:09 51°13.591 2°56.099 146.9 1.3 144 -999
2007-04-23 06:47:14 51°13.59 2°56.101 147.8 1.5 138 9.3
2007-04-23 06:47:19 51°13.588 2°56.103 150 1.5 151 10.3
2007-04-23 06:47:24 51°13.586 2°56.105 152.4 1.5 143 10.9
2007-04-23 06:47:29 51°13.584 2°56.106 154.5 1.6 154 11.2
2007-04-23 06:47:34 51°13.582 2°56.108 156.3 1.6 145 11.3
2007-04-23 06:47:39 51°13.581 2°56.11 156.7 1.7 153 11.4
2007-04-23 06:47:44 51°13.579 2°56.112 156.4 1.7 145 11.7
2007-04-23 06:47:49 51°13.577 2°56.114 155.4 1.8 150 11.8
2007-04-23 06:47:54 51°13.574 2°56.117 153.8 2 143 12
2007-04-23 06:47:59 51°13.572 2°56.119 151 2.2 146 12.1
2007-04-23 06:48:04 51°13.569 2°56.123 147.9 2.5 141 12.3
2007-04-23 06:48:09 51°13.566 2°56.127 145 2.7 140 12.2
2007-04-23 06:48:14 51°13.563 2°56.131 142 2.7 138 12.2
2007-04-23 06:48:19 51°13.561 2°56.135 140.9 2.8 139 12.2
2007-04-23 06:48:24 51°13.558 2°56.139 141 2.9 138 12.2
2007-04-23 06:48:29 51°13.554 2°56.143 141.2 3 138 12.3
2007-04-23 06:48:34 51°13.551 2°56.148 141.2 3.1 138 12.2
2007-04-23 06:48:39 51°13.548 2°56.153 140.8 3.2 137 12.3
2007-04-23 06:48:44 51°13.545 2°56.158 140.3 3.3 136 12.2
2007-04-23 06:48:49 51°13.541 2°56.163 139.8 3.4 134 12.4
2007-04-23 06:48:54 51°13.538 2°56.17 139.1 3.8 132 12.3
2007-04-23 06:48:59 51°13.534 2°56.177 137.9 4.1 129 12.3
2007-04-23 06:49:04 51°13.531 2°56.185 133.9 4.3 117 12.4
2007-04-23 06:49:09 51°13.529 2°56.195 126.2 4.4 112 12.3
2007-04-23 06:49:14 51°13.528 2°56.204 116.1 4.4 101 12.3
2007-04-23 06:49:19 51°13.527 2°56.214 109 4.4 94 12.4
2007-04-23 06:49:24 51°13.528 2°56.224 100.6 4.4 86 12.4
2007-04-23 06:49:29 51°13.529 2°56.233 92.8 4.4 80 12.3
2007-04-23 06:49:34 51°13.53 2°56.242 85.4 4.3 72 12.1
2007-04-23 06:49:39 51°13.532 2°56.251 78.3 4.2 67 11.6
2007-04-23 06:49:44 51°13.535 2°56.259 71.2 4 61 11.5
2007-04-23 06:49:49 51°13.538 2°56.265 65.3 3.5 59 11.6
2007-04-23 06:49:54 51°13.541 2°56.271 61.7 2.9 57 11.4
2007-04-23 06:49:59 51°13.542 2°56.274 59.5 2.2 53 10
2007-04-23 06:50:04 51°13.544 2°56.277 55.1 1.7 48 9.9
2007-04-23 06:50:09 51°13.545 2°56.279 49.8 1.3 50 9.6
2007-04-23 06:50:14 51°13.546 2°56.281 45.2 0.9 51 9.3
2007-04-23 06:50:19 51°13.546 2°56.282 41.5 0.5 61 9.5
2007-04-23 06:50:24 51°13.546 2°56.282 38.5 0.3 89 9.5
2007-04-23 06:50:29 51°13.546 2°56.283 36.2 0.3 159 9.5
2007-04-23 06:50:34 51°13.545 2°56.282 34.3 0.5 186 9.5
2007-04-23 06:50:39 51°13.544 2°56.282 32.9 0.8 194 9.5
2007-04-23 06:50:44 51°13.542 2°56.281 31.7 1 196 9.3
2007-04-23 06:50:49 51°13.541 2°56.281 31.2 1 198 9.3
2007-04-23 06:50:54 51°13.54 2°56.28 31 0.9 197 -999
2007-04-23 06:50:59 51°13.539 2°56.28 31.5 0.4 191 -999
2007-04-23 06:51:04 51°13.539 2°56.28 31.2 0.2 116 -999
2007-04-23 06:51:09 51°13.54 2°56.281 29.3 0.3 37 -999
2007-04-23 06:51:14 51°13.54 2°56.281 26.7 0.6 32 -999
2007-04-23 06:51:19 51°13.541 2°56.282 23.6 0.7 28 -999
2007-04-23 06:51:24 51°13.542 2°56.283 20.7 0.6 26 -999
2007-04-23 06:51:29 51°13.543 2°56.283 18.8 0.5 31 -999
2007-04-23 06:51:34 51°13.543 2°56.284 17.3 0.3 39 -999
2007-04-23 06:51:39 51°13.543 2°56.284 15.9 0.2 58 -999
2007-04-23 06:51:44 51°13.543 2°56.284 14.8 0.2 105 -999
2007-04-23 06:51:49 51°13.543 2°56.285 14.2 0.3 150 -999
2007-04-23 06:51:54 51°13.542 2°56.285 13.5 0.5 165 -999
2007-04-23 06:51:59 51°13.541 2°56.285 13 0.6 175 -999
2007-04-23 06:52:04 51°13.54 2°56.285 12.9 0.8 174 4.6
2007-04-23 06:52:09 51°13.539 2°56.285 12.8 1 179 -999
2007-04-23 06:52:14 51°13.538 2°56.285 12.8 0.9 180 -999
2007-04-23 06:52:19 51°13.536 2°56.285 13.2 0.8 182 -999
2007-04-23 06:52:24 51°13.536 2°56.285 13.8 0.4 167 9.2
2007-04-23 06:52:29 51°13.536 2°56.285 13.7 0.3 31 -999
2007-04-23 06:52:34 51°13.537 2°56.286 11.5 0.7 9 -999
2007-04-23 06:52:39 51°13.538 2°56.286 7.1 1 5 -999
2007-04-23 06:52:44 51°13.54 2°56.286 2.7 1.2 5 -999
2007-04-23 06:52:49 51°13.542 2°56.286 358.5 1.1 358 -999
2007-04-23 06:52:54 51°13.543 2°56.286 356.2 0.9 4 -999
2007-04-23 06:52:59 51°13.543 2°56.286 354 0.5 14 -999
2007-04-23 06:53:04 51°13.544 2°56.287 352.1 0.2 57 -999
2007-04-23 06:53:09 51°13.543 2°56.288 350.9 0.4 131 -999
2007-04-23 06:53:14 51°13.543 2°56.289 349.8 0.8 152 -999
2007-04-23 06:53:19 51°13.541 2°56.29 349.1 1.1 154 4.6
2007-04-23 06:53:24 51°13.539 2°56.291 348.5 1.4 157 4.9
2007-04-23 06:53:29 51°13.537 2°56.292 348.1 1.5 158 9.1
2007-04-23 06:53:34 51°13.535 2°56.294 347.4 1.4 156 4.6
2007-04-23 06:53:39 51°13.534 2°56.294 346.9 1.1 155 -999
2007-04-23 06:53:44 51°13.533 2°56.295 346.6 0.9 152 -999
2007-04-23 06:53:49 51°13.532 2°56.295 345.6 0.5 154 -999
2007-04-23 06:53:54 51°13.532 2°56.296 344.6 0.2 113 -999
2007-04-23 06:53:59 51°13.532 2°56.296 341.8 0.2 343 -999
2007-04-23 06:54:04 51°13.533 2°56.295 338.7 0.6 340 -999
2007-04-23 06:54:09 51°13.534 2°56.295 335.8 0.8 333 -999
2007-04-23 06:54:14 51°13.535 2°56.293 331 1.1 327 -999
2007-04-23 06:54:19 51°13.536 2°56.292 326.6 1.3 322 -999
2007-04-23 06:54:24 51°13.538 2°56.29 322.1 1.6 320 -999
2007-04-23 06:54:29 51°13.54 2°56.287 318.5 1.8 311 -999
2007-04-23 06:54:34 51°13.542 2°56.282 312.9 2.7 308 -999
2007-04-23 06:54:39 51°13.544 2°56.276 306 3 298 -999
2007-04-23 06:54:44 51°13.546 2°56.268 297.9 3.6 292 -999
2007-04-23 06:54:49 51°13.547 2°56.26 291.6 3.8 282 4.6
2007-04-23 06:54:54 51°13.548 2°56.252 286.6 3.9 281 4.8
2007-04-23 06:54:59 51°13.549 2°56.243 283.7 3.9 278 10.4
2007-04-23 06:55:04 51°13.549 2°56.234 281.8 3.9 277 10.3
2007-04-23 06:55:09 51°13.55 2°56.226 280.3 4 276 10.4
2007-04-23 06:55:14 51°13.551 2°56.217 279.4 4 276 11
2007-04-23 06:55:19 51°13.551 2°56.208 279.2 4 275 11.2
2007-04-23 06:55:24 51°13.552 2°56.198 279.7 4.1 278 11.4
2007-04-23 06:55:29 51°13.552 2°56.189 280.8 4.2 276 10.8
2007-04-23 06:55:34 51°13.553 2°56.18 281.5 4.2 279 11.5
2007-04-23 06:55:39 51°13.554 2°56.171 282.2 4.2 279 11.8
2007-04-23 06:55:44 51°13.555 2°56.162 283 4.3 280 12.1
2007-04-23 06:55:49 51°13.557 2°56.152 284.2 4.3 282 12.1
2007-04-23 06:55:54 51°13.558 2°56.143 285.6 4.3 283 12.1
2007-04-23 06:55:59 51°13.56 2°56.134 287.1 4.3 285 12.1
2007-04-23 06:56:04 51°13.561 2°56.124 289 4.4 288 12.1
2007-04-23 06:56:09 51°13.563 2°56.115 291.2 4.4 290 12.1
2007-04-23 06:56:14 51°13.566 2°56.107 293.6 4.4 292 12.1
2007-04-23 06:56:19 51°13.568 2°56.098 296 4.4 294 12
2007-04-23 06:56:24 51°13.571 2°56.089 298.3 4.4 296 12
2007-04-23 06:56:29 51°13.573 2°56.08 300.4 4.4 298 12
2007-04-23 06:56:34 51°13.576 2°56.072 302.3 4.4 299 12
2007-04-23 06:56:39 51°13.579 2°56.063 303.3 4.4 300 12
2007-04-23 06:56:44 51°13.582 2°56.055 304.2 4.4 301 11.8
2007-04-23 06:56:49 51°13.586 2°56.046 305.2 4.4 301 11.9
2007-04-23 06:56:54 51°13.589 2°56.038 306.2 4.5 302 11.8
2007-04-23 06:56:59 51°13.592 2°56.03 307 4.5 302 12
2007-04-23 06:57:04 51°13.596 2°56.021 307.5 4.5 303 12.1
2007-04-23 06:57:09 51°13.599 2°56.013 308 4.6 303 12.2
2007-04-23 06:57:14 51°13.603 2°56.004 308.4 4.7 303 12.1
2007-04-23 06:57:19 51°13.607 2°55.995 308.4 4.8 303 12
2007-04-23 06:57:24 51°13.61 2°55.986 308.5 4.9 303 11.9
2007-04-23 06:57:29 51°13.614 2°55.977 308.8 5 304 11.8
2007-04-23 06:57:34 51°13.618 2°55.968 309.2 5 304 11.8
2007-04-23 06:57:39 51°13.622 2°55.959 309.8 5.1 305 11.7
2007-04-23 06:57:44 51°13.626 2°55.949 310.2 5.2 306 11.6
2007-04-23 06:57:49 51°13.631 2°55.94 311 5.2 307 11.6
2007-04-23 06:57:54 51°13.636 2°55.932 311.5 5.3 307 11.6
2007-04-23 06:57:59 51°13.641 2°55.923 311.5 5.3 307 11.7
2007-04-23 06:58:04 51°13.645 2°55.914 311.4 5.4 308 11.5
2007-04-23 06:58:09 51°13.65 2°55.904 312 5.4 309 11.5
2007-04-23 06:58:14 51°13.655 2°55.895 312.5 5.5 309 11.3
2007-04-23 06:58:19 51°13.659 2°55.885 312.7 5.5 309 11.4
2007-04-23 06:58:24 51°13.664 2°55.875 312.7 5.6 308 11.4
2007-04-23 06:58:29 51°13.668 2°55.865 312.5 5.6 308 11.5
2007-04-23 06:58:34 51°13.673 2°55.855 312.5 5.6 308 11.2
2007-04-23 06:58:39 51°13.678 2°55.845 312.9 5.7 309 -999
2007-04-23 06:58:44 51°13.683 2°55.836 313.3 5.7 309 11.1
2007-04-23 06:58:49 51°13.688 2°55.826 313.5 5.7 309 11.2
2007-04-23 06:58:54 51°13.693 2°55.816 313.5 5.8 308 11.3
2007-04-23 06:58:59 51°13.698 2°55.806 313.2 5.9 306 4.6
2007-04-23 06:59:04 51°13.703 2°55.795 312.7 6 305 4.8
2007-04-23 06:59:09 51°13.708 2°55.785 312.5 6 306 14.1
2007-04-23 06:59:14 51°13.713 2°55.774 312.8 6.1 309 14.2
2007-04-23 06:59:19 51°13.719 2°55.764 314.6 6 311 14.1
2007-04-23 06:59:24 51°13.725 2°55.755 316.7 6.1 314 14.3
2007-04-23 06:59:29 51°13.731 2°55.745 319 6.1 316 13.6
2007-04-23 06:59:34 51°13.737 2°55.736 320.8 6.2 318 13
2007-04-23 06:59:39 51°13.743 2°55.726 322 6.3 319 12.6
2007-04-23 06:59:44 51°13.75 2°55.717 323.2 6.3 320 12.2
2007-04-23 06:59:49 51°13.757 2°55.709 324.6 6.3 322 12.2
2007-04-23 06:59:54 51°13.764 2°55.7 326 6.3 323 12.1
2007-04-23 06:59:59 51°13.771 2°55.692 327.4 6.4 324 12.1
2007-04-23 07:00:04 51°13.778 2°55.684 328.8 6.4 326 12
2007-04-23 07:00:09 51°13.786 2°55.677 330.4 6.4 327 12
2007-04-23 07:00:14 51°13.793 2°55.669 332 6.4 329 12
2007-04-23 07:00:19 51°13.801 2°55.662 333.6 6.4 331 12
2007-04-23 07:00:24 51°13.809 2°55.656 335.3 6.5 332 12.1
2007-04-23 07:00:29 51°13.817 2°55.649 337.1 6.5 334 12.1
2007-04-23 07:00:34 51°13.825 2°55.643 338.6 6.5 335 12.1
2007-04-23 07:00:39 51°13.834 2°55.638 339.5 6.5 335 12.1
2007-04-23 07:00:44 51°13.842 2°55.632 340.2 6.6 335 12
2007-04-23 07:00:49 51°13.85 2°55.625 340.2 6.7 334 12.1
2007-04-23 07:00:54 51°13.859 2°55.618 339.6 6.9 335 12.1
2007-04-23 07:00:59 51°13.868 2°55.612 339.5 7.1 335 12.1
2007-04-23 07:01:04 51°13.877 2°55.606 340.2 7.2 336 12
2007-04-23 07:01:09 51°13.886 2°55.599 341 7.3 336 12
2007-04-23 07:01:14 51°13.896 2°55.593 341.6 7.5 336 12.1
2007-04-23 07:01:19 51°13.905 2°55.586 341.2 7.6 336 12
2007-04-23 07:01:24 51°13.914 2°55.579 341 7.7 336 12
2007-04-23 07:01:29 51°13.924 2°55.572 341 7.8 336 -999
2007-04-23 07:01:34 51°13.934 2°55.565 340.9 7.8 336 12.2
2007-04-23 07:01:39 51°13.944 2°55.558 341 7.8 336 12.5
2007-04-23 07:01:44 51°13.954 2°55.551 341.2 7.9 336 12.8
2007-04-23 07:01:49 51°13.964 2°55.543 341.1 8 336 -999
2007-04-23 07:01:54 51°13.974 2°55.536 340.8 8 336 -999
2007-04-23 07:01:59 51°13.984 2°55.529 341.6 8.1 337 -999
2007-04-23 07:02:04 51°13.994 2°55.522 341.9 8 336 -999
2007-04-23 07:02:09 51°14.004 2°55.514 341.6 8 336 12.6
2007-04-23 07:02:14 51°14.015 2°55.507 341.1 8.1 336 12.8
2007-04-23 07:02:19 51°14.025 2°55.5 341.3 8.1 336 12.6
2007-04-23 07:02:24 51°14.035 2°55.493 341.6 8.1 336 12.7
2007-04-23 07:02:29 51°14.046 2°55.485 341.6 8.2 336 -999
2007-04-23 07:02:34 51°14.056 2°55.478 341.6 8.2 336 4.9
2007-04-23 07:02:39 51°14.067 2°55.47 341.6 8.1 335 -999
2007-04-23 07:02:44 51°14.077 2°55.463 341.4 8.2 337 -999
2007-04-23 07:02:49 51°14.088 2°55.456 341.8 8.3 336 -999
2007-04-23 07:02:54 51°14.099 2°55.448 341 8.4 335 -999
2007-04-23 07:02:59 51°14.109 2°55.44 339.3 8.2 332 4.9
2007-04-23 07:03:04 51°14.118 2°55.431 337.6 8.2 332 4.6
2007-04-23 07:03:09 51°14.128 2°55.422 336.7 8.2 330 5
2007-04-23 07:03:14 51°14.138 2°55.413 335.3 8.3 330 4.6
2007-04-23 07:03:19 51°14.148 2°55.403 334.1 8.5 328 4.8
2007-04-23 07:03:24 51°14.159 2°55.393 333.1 8.8 327 4.6
2007-04-23 07:03:29 51°14.169 2°55.382 332.8 9.1 328 4.6
2007-04-23 07:03:34 51°14.18 2°55.37 332.3 9.4 325 4.7
2007-04-23 07:03:39 51°14.191 2°55.357 330.8 9.6 324 4.7
2007-04-23 07:03:44 51°14.202 2°55.344 329.3 9.9 322 4.6
2007-04-23 07:03:49 51°14.212 2°55.329 328 10.1 321 4.7
2007-04-23 07:03:54 51°14.223 2°55.315 326.7 10.3 319 4.9
2007-04-23 07:03:59 51°14.234 2°55.299 325.3 10.7 318 4.5
2007-04-23 07:04:04 51°14.245 2°55.282 323.3 11.1 315 4.6
2007-04-23 07:04:09 51°14.256 2°55.263 321.6 11.6 314 12.6
2007-04-23 07:04:14 51°14.267 2°55.243 319.7 12 312 12.6
2007-04-23 07:04:19 51°14.278 2°55.223 318.4 12.3 311 12.8
2007-04-23 07:04:24 51°14.29 2°55.202 317.2 12.6 311 12.5
2007-04-23 07:04:29 51°14.302 2°55.18 317.1 12.9 310 12.5
2007-04-23 07:04:34 51°14.313 2°55.158 316.3 12.9 308 12.6
2007-04-23 07:04:39 51°14.324 2°55.136 314.8 12.9 308 12.5
2007-04-23 07:04:44 51°14.336 2°55.113 314.3 13.1 308 12.6
2007-04-23 07:04:49 51°14.347 2°55.09 314.3 13.2 308 12.5
2007-04-23 07:04:54 51°14.358 2°55.067 313.7 13.2 308 12.4
2007-04-23 07:04:58 51°14.367 2°55.048 313.4 13.3 309 12
2007-04-23 07:05:03 51°14.379 2°55.026 314.1 13.2 311 11.9
2007-04-23 07:05:09 51°14.394 2°55.001 315.7 13.2 314 11.9
2007-04-23 07:05:15 51°14.411 2°54.977 318.6 13.2 317 12.1
2007-04-23 07:05:19 51°14.422 2°54.961 322.1 13.3 318 12.2
2007-04-23 07:05:24 51°14.436 2°54.942 323.9 13.4 320 11.9
2007-04-23 07:05:29 51°14.451 2°54.923 325.1 13.4 321 12.1
2007-04-23 07:05:35 51°14.469 2°54.902 326.6 13.4 324 11.6
2007-04-23 07:05:38 51°14.478 2°54.892 328.7 13.3 325 11.4
2007-04-23 07:05:44 51°14.497 2°54.873 330.6 13.3 326 11.2
2007-04-23 07:05:48 51°14.51 2°54.86 331.6 13.3 327 10.9
2007-04-23 07:05:53 51°14.525 2°54.844 332.3 13.3 327 10.9
2007-04-23 07:05:59 51°14.544 2°54.825 332.7 13.3 329 10.7
2007-04-23 07:06:04 51°14.56 2°54.81 333.7 13.3 329 10.7
2007-04-23 07:06:08 51°14.573 2°54.798 334.2 13.3 329 10.7
2007-04-23 07:06:13 51°14.589 2°54.782 334.2 13.3 329 10.5
2007-04-23 07:06:18 51°14.604 2°54.767 334.1 13.3 329 10.4
2007-04-23 07:06:24 51°14.623 2°54.749 333.8 13.4 330 10.5
2007-04-23 07:06:29 51°14.64 2°54.734 333.7 13.3 330 10.5
2007-04-23 07:06:33 51°14.652 2°54.722 333.8 13.4 331 10.5
2007-04-23 07:06:38 51°14.669 2°54.708 334.1 13.3 330 10.5
2007-04-23 07:06:44 51°14.688 2°54.69 333.9 13.4 330 10.5
2007-04-23 07:06:48 51°14.701 2°54.678 333.5 13.3 329 10.6
2007-04-23 07:06:53 51°14.716 2°54.662 332.9 13.3 328 10.7
2007-04-23 07:06:58 51°14.732 2°54.647 332.2 13.3 328 10.7
2007-04-23 07:07:04 51°14.751 2°54.628 331.8 13.3 328 10.7
2007-04-23 07:07:09 51°14.766 2°54.612 331.7 13.3 328 10.6
2007-04-23 07:07:14 51°14.782 2°54.596 332 13.3 328 10.5
2007-04-23 07:07:18 51°14.795 2°54.584 332.2 13.3 328 10.5
2007-04-23 07:07:24 51°14.813 2°54.565 332.4 13.2 328 10.5
2007-04-23 07:07:29 51°14.829 2°54.55 332.4 13.3 329 10.9
2007-04-23 07:07:33 51°14.842 2°54.538 332.5 13.4 329 10.9
2007-04-23 07:07:38 51°14.858 2°54.523 332.7 13.3 329 10.8
2007-04-23 07:07:43 51°14.874 2°54.508 333 13.3 330 10.7
2007-04-23 07:07:48 51°14.89 2°54.493 333.2 13.3 330 10.7
2007-04-23 07:07:54 51°14.909 2°54.476 333.3 13.3 330 10.3
2007-04-23 07:07:58 51°14.922 2°54.464 333.6 13.2 329 10.1
2007-04-23 07:08:04 51°14.94 2°54.446 333.4 13.2 329 10.1
2007-04-23 07:08:08 51°14.953 2°54.434 333.1 13.2 329 10
2007-04-23 07:08:13 51°14.968 2°54.418 332.8 13.2 328 9.9
2007-04-23 07:08:18 51°14.984 2°54.403 332.4 13.2 328 9.6
2007-04-23 07:08:24 51°15.002 2°54.384 332.4 13.2 327 9.6
2007-04-23 07:08:28 51°15.014 2°54.371 332 13.1 327 9.6
2007-04-23 07:08:33 51°15.03 2°54.355 331.7 13.1 327 9.6
2007-04-23 07:08:39 51°15.048 2°54.338 331.7 13.1 329 9.6
2007-04-23 07:08:44 51°15.064 2°54.322 332.4 13.2 329 9.5
2007-04-23 07:08:48 51°15.077 2°54.311 332.9 13.3 330 9.5
2007-04-23 07:08:54 51°15.096 2°54.293 333.3 13.2 330 9.5
2007-04-23 07:08:59 51°15.111 2°54.278 333.9 13.2 330 9.5
2007-04-23 07:09:04 51°15.127 2°54.264 334.1 13.3 330 9.8
2007-04-23 07:09:09 51°15.143 2°54.249 334.2 13.3 330 9.8
2007-04-23 07:09:14 51°15.159 2°54.234 333.8 13.3 330 9.7
2007-04-23 07:09:19 51°15.175 2°54.218 333.5 13.3 328 9.9
2007-04-23 07:09:24 51°15.19 2°54.202 332.7 13.4 327 10
2007-04-23 07:09:29 51°15.206 2°54.186 332 13.3 327 10
2007-04-23 07:09:34 51°15.221 2°54.17 331.7 13.3 327 10
2007-04-23 07:09:39 51°15.237 2°54.154 331.7 13.3 327 10
2007-04-23 07:09:44 51°15.252 2°54.139 332 13.3 328 10.1
2007-04-23 07:09:49 51°15.268 2°54.123 332.7 13.4 329 10.1
2007-04-23 07:09:54 51°15.284 2°54.109 333.3 13.4 330 10.3
2007-04-23 07:09:59 51°15.3 2°54.093 334 13.3 329 10.3
2007-04-23 07:10:04 51°15.316 2°54.078 334.2 13.3 329 10.4
2007-04-23 07:10:09 51°15.331 2°54.063 334.2 13.3 329 10.4
2007-04-23 07:10:14 51°15.347 2°54.048 333.8 13.3 329 10.5
2007-04-23 07:10:19 51°15.362 2°54.032 333.6 13.3 328 10.7
2007-04-23 07:10:24 51°15.378 2°54.017 333.1 13.3 328 10.7
2007-04-23 07:10:29 51°15.394 2°54.002 333.1 13.3 328 10.8
2007-04-23 07:10:34 51°15.409 2°53.987 333.1 13.2 328 10.9
2007-04-23 07:10:39 51°15.425 2°53.971 333.1 13.2 328 10.9
2007-04-23 07:10:44 51°15.44 2°53.956 333.2 13.2 328 10.9
2007-04-23 07:10:49 51°15.456 2°53.941 333.2 13.2 328 11
2007-04-23 07:10:54 51°15.471 2°53.925 333.1 13.2 328 11
2007-04-23 07:10:59 51°15.486 2°53.909 332.9 13.2 328 11.1
2007-04-23 07:11:04 51°15.502 2°53.894 332.8 13.2 328 11.1
2007-04-23 07:11:09 51°15.518 2°53.879 332.7 13.2 329 11.2
2007-04-23 07:11:14 51°15.533 2°53.864 333.1 13.2 329 11.2
2007-04-23 07:11:19 51°15.549 2°53.849 333.7 13.2 330 11.2
2007-04-23 07:11:24 51°15.565 2°53.835 334.6 13.2 331 11.3
2007-04-23 07:11:29 51°15.581 2°53.821 335.3 13.2 331 11.4
2007-04-23 07:11:34 51°15.597 2°53.807 335.7 13.3 331 11.4
2007-04-23 07:11:39 51°15.613 2°53.793 335.9 13.3 331 11.4
2007-04-23 07:11:44 51°15.63 2°53.779 335.9 13.3 331 11.5
2007-04-23 07:11:49 51°15.646 2°53.764 336 13.3 331 11.5
2007-04-23 07:11:54 51°15.662 2°53.751 336 13.3 331 11.5
2007-04-23 07:11:59 51°15.678 2°53.736 336 13.3 331 11.6
2007-04-23 07:12:04 51°15.694 2°53.722 335.7 13.3 331 11.6
2007-04-23 07:12:09 51°15.71 2°53.708 335.4 13.3 331 11.7
2007-04-23 07:12:14 51°15.726 2°53.693 335.3 13.3 331 11.7
2007-04-23 07:12:19 51°15.742 2°53.679 335.3 13.4 331 11.7
2007-04-23 07:12:24 51°15.758 2°53.665 335.3 13.4 331 11.8
2007-04-23 07:12:29 51°15.774 2°53.651 335.6 13.4 331 11.8
2007-04-23 07:12:34 51°15.791 2°53.637 335.8 13.4 332 11.9
2007-04-23 07:12:39 51°15.807 2°53.623 335.8 13.4 332 11.9
2007-04-23 07:12:44 51°15.823 2°53.609 335.8 13.4 331 11.9
2007-04-23 07:12:49 51°15.839 2°53.595 335.6 13.4 331 12
2007-04-23 07:12:54 51°15.856 2°53.58 335.4 13.4 331 12
2007-04-23 07:12:59 51°15.872 2°53.566 335.3 13.4 331 12
2007-04-23 07:13:04 51°15.888 2°53.552 335.3 13.4 331 12.1
2007-04-23 07:13:09 51°15.904 2°53.538 335.3 13.3 331 12.1
2007-04-23 07:13:14 51°15.92 2°53.523 335.2 13.3 331 12.2
2007-04-23 07:13:19 51°15.936 2°53.509 334.9 13.3 331 12.2
2007-04-23 07:13:24 51°15.953 2°53.496 334.9 13.3 333 12.2
2007-04-23 07:13:29 51°15.969 2°53.483 336.2 13.3 334 12.2
2007-04-23 07:13:34 51°15.986 2°53.47 337.2 13.3 334 12.3
2007-04-23 07:13:39 51°16.003 2°53.457 338.3 13.3 335 12.3
2007-04-23 07:13:44 51°16.02 2°53.445 339.3 13.4 336 12.3
2007-04-23 07:13:49 51°16.036 2°53.433 339.8 13.3 336 12.3
2007-04-23 07:13:54 51°16.054 2°53.422 340.5 13.4 337 12.4
2007-04-23 07:13:59 51°16.071 2°53.41 340.9 13.4 337 12.4
2007-04-23 07:14:04 51°16.088 2°53.399 341.1 13.4 337 12.7
2007-04-23 07:14:09 51°16.105 2°53.387 341.1 13.4 337 12.5
2007-04-23 07:14:14 51°16.122 2°53.376 341.1 13.4 337 12.5
2007-04-23 07:14:19 51°16.139 2°53.364 341 13.4 337 12.6
2007-04-23 07:14:24 51°16.156 2°53.352 340.8 13.4 337 12.5
2007-04-23 07:14:29 51°16.173 2°53.34 340.8 13.4 337 12.6
2007-04-23 07:14:34 51°16.19 2°53.329 340.8 13.4 337 12.6
2007-04-23 07:14:39 51°16.207 2°53.317 340.8 13.4 337 12.6
2007-04-23 07:14:44 51°16.224 2°53.305 340.7 13.3 336 12.6
2007-04-23 07:14:49 51°16.241 2°53.293 340.4 13.3 336 12.6
2007-04-23 07:14:54 51°16.258 2°53.281 340.1 13.3 336 12.6
2007-04-23 07:14:59 51°16.275 2°53.268 340 13.3 336 12.7
2007-04-23 07:15:04 51°16.292 2°53.256 340 13.4 336 12.7
2007-04-23 07:15:09 51°16.309 2°53.245 339.9 13.3 336 12.7
2007-04-23 07:15:14 51°16.326 2°53.233 340.4 13.3 336 12.7
2007-04-23 07:15:19 51°16.343 2°53.22 340.4 13.3 335 12.7
2007-04-23 07:15:24 51°16.359 2°53.208 340.1 13.4 335 12.7
2007-04-23 07:15:29 51°16.377 2°53.196 339.9 13.4 336 12.7
2007-04-23 07:15:34 51°16.393 2°53.184 340 13.4 336 12.8
2007-04-23 07:15:39 51°16.41 2°53.172 340.2 13.3 336 12.7
2007-04-23 07:15:44 51°16.427 2°53.16 340.4 13.3 337 12.7
2007-04-23 07:15:49 51°16.444 2°53.148 340.6 13.4 337 12.8
2007-04-23 07:15:54 51°16.461 2°53.137 340.6 13.4 337 12.7
2007-04-23 07:15:59 51°16.478 2°53.124 340.6 13.4 336 12.7
2007-04-23 07:16:04 51°16.495 2°53.112 339.7 13.3 334 12.7
2007-04-23 07:16:09 51°16.512 2°53.099 338.8 13.4 334 12.7
2007-04-23 07:16:14 51°16.528 2°53.085 338.2 13.3 333 12.6
2007-04-23 07:16:19 51°16.545 2°53.072 337.3 13.4 333 12.5
2007-04-23 07:16:24 51°16.561 2°53.059 337 13.4 333 12.5
2007-04-23 07:16:29 51°16.578 2°53.045 337 13.3 333 12.5
2007-04-23 07:16:34 51°16.595 2°53.032 337 13.4 333 12.4
2007-04-23 07:16:39 51°16.611 2°53.019 337.2 13.4 334 12.4
2007-04-23 07:16:44 51°16.628 2°53.006 337.4 13.4 334 12.4
2007-04-23 07:16:49 51°16.645 2°52.993 337.5 13.4 334 12.3
2007-04-23 07:16:54 51°16.661 2°52.979 337.5 13.4 334 12.2
2007-04-23 07:16:59 51°16.678 2°52.966 337.2 13.4 334 12.2
2007-04-23 07:17:04 51°16.695 2°52.953 337.1 13.4 334 12.1
2007-04-23 07:17:09 51°16.712 2°52.94 337.3 13.4 334 12.1
2007-04-23 07:17:14 51°16.729 2°52.927 337.4 13.4 334 11.9
2007-04-23 07:17:19 51°16.746 2°52.914 337.4 13.4 334 11.8
2007-04-23 07:17:24 51°16.762 2°52.901 337.5 13.4 334 11.5
2007-04-23 07:17:29 51°16.779 2°52.888 337.3 13.4 334 11.3
2007-04-23 07:17:34 51°16.796 2°52.875 337.2 13.3 334 10.9
2007-04-23 07:17:39 51°16.812 2°52.862 337 13.3 334 10.4
2007-04-23 07:17:44 51°16.829 2°52.848 336.7 13.3 334 10.4
2007-04-23 07:17:49 51°16.846 2°52.835 336.7 13.3 334 10.3
2007-04-23 07:17:54 51°16.862 2°52.823 336.8 13.3 334 10.2
2007-04-23 07:17:59 51°16.879 2°52.809 337.4 13.3 334 10.2
2007-04-23 07:18:04 51°16.896 2°52.797 337.4 13.3 335 10
2007-04-23 07:18:09 51°16.913 2°52.784 337.5 13.4 334 10.1
2007-04-23 07:18:14 51°16.929 2°52.771 337.5 13.4 335 10.2
2007-04-23 07:18:19 51°16.946 2°52.758 337.5 13.4 334 10.4
2007-04-23 07:18:24 51°16.963 2°52.745 337.3 13.4 334 10.4
2007-04-23 07:18:29 51°16.98 2°52.732 337.2 13.5 334 10.7
2007-04-23 07:18:34 51°16.997 2°52.719 337.2 13.5 335 10.7
2007-04-23 07:18:39 51°17.013 2°52.706 337.3 13.5 334 10.4
2007-04-23 07:18:44 51°17.03 2°52.693 337.3 13.5 334 10.9
2007-04-23 07:18:49 51°17.047 2°52.68 337.3 13.5 334 11
2007-04-23 07:18:54 51°17.064 2°52.666 337.3 13.5 334 11
2007-04-23 07:18:59 51°17.081 2°52.652 337.5 13.5 332 10.8
2007-04-23 07:19:04 51°17.097 2°52.638 336.7 13.4 332 10.7
2007-04-23 07:19:09 51°17.113 2°52.624 336.3 13.3 332 10.6
2007-04-23 07:19:14 51°17.13 2°52.611 336.3 13.3 332 10.4
2007-04-23 07:19:19 51°17.146 2°52.597 336.7 13.3 332 10.6
2007-04-23 07:19:24 51°17.162 2°52.584 336.7 13.3 333 10.5
2007-04-23 07:19:29 51°17.179 2°52.571 337 13.3 334 10.5
2007-04-23 07:19:34 51°17.195 2°52.557 337.5 13.3 334 10.6
2007-04-23 07:19:39 51°17.212 2°52.545 337.7 13.3 334 10.7
2007-04-23 07:19:44 51°17.228 2°52.531 338.1 13.3 333 10.7
2007-04-23 07:19:49 51°17.245 2°52.518 338 13.3 332 10.9
2007-04-23 07:19:54 51°17.261 2°52.504 337.4 13.3 332 10.8
2007-04-23 07:19:59 51°17.277 2°52.49 337 13.3 332 10.8
2007-04-23 07:20:04 51°17.294 2°52.477 337 13.3 333 10.9
2007-04-23 07:20:09 51°17.31 2°52.463 337.4 13.3 331 11.1
2007-04-23 07:20:14 51°17.326 2°52.449 336.1 13.3 331 11.3
2007-04-23 07:20:19 51°17.342 2°52.433 334.8 13.3 329 11.2
2007-04-23 07:20:24 51°17.358 2°52.418 333.7 13.3 329 11.3
2007-04-23 07:20:29 51°17.373 2°52.402 333.1 13.3 328 11.3
2007-04-23 07:20:34 51°17.389 2°52.387 332.4 13.3 328 11.2
2007-04-23 07:20:39 51°17.405 2°52.371 332.2 13.3 328 11.3
2007-04-23 07:20:44 51°17.42 2°52.355 332 13.3 327 11.2
2007-04-23 07:20:49 51°17.436 2°52.339 331.8 13.3 326 11.3
2007-04-23 07:20:54 51°17.451 2°52.322 330.9 13.3 324 11.4
2007-04-23 07:20:59 51°17.466 2°52.304 329.4 13.3 324 11.3
2007-04-23 07:21:04 51°17.481 2°52.288 328.3 13.3 325 11.5
2007-04-23 07:21:09 51°17.496 2°52.271 328.7 13.3 326 11.3
2007-04-23 07:21:14 51°17.512 2°52.255 329.5 13.3 327 11.4
2007-04-23 07:21:19 51°17.527 2°52.239 330.2 13.3 327 11.4
2007-04-23 07:21:24 51°17.543 2°52.223 330.6 13.3 327 11.4
2007-04-23 07:21:29 51°17.558 2°52.207 330.7 13.3 328 11.4
2007-04-23 07:21:34 51°17.574 2°52.191 331.2 13.3 327 11.1
2007-04-23 07:21:39 51°17.589 2°52.176 331.2 13.3 327 11.2
2007-04-23 07:21:44 51°17.604 2°52.159 331.3 13.3 327 11.3
2007-04-23 07:21:49 51°17.62 2°52.143 331.1 13.3 326 11.2
2007-04-23 07:21:54 51°17.635 2°52.127 330.6 13.3 327 11.2
2007-04-23 07:21:59 51°17.651 2°52.111 330.8 13.3 327 11.3
2007-04-23 07:22:04 51°17.667 2°52.095 331 13.3 328 11.3
2007-04-23 07:22:09 51°17.682 2°52.08 331.3 13.3 327 11.1
2007-04-23 07:22:14 51°17.698 2°52.064 331.4 13.3 328 11.3
2007-04-23 07:22:19 51°17.714 2°52.048 331.4 13.3 327 11.4
2007-04-23 07:22:24 51°17.729 2°52.032 331 13.3 327 11.3
2007-04-23 07:22:29 51°17.744 2°52.016 330.8 13.3 327 11.4
2007-04-23 07:22:34 51°17.76 2°51.999 330.7 13.3 327 11.3
2007-04-23 07:22:39 51°17.775 2°51.983 330.4 13.3 327 11.1
2007-04-23 07:22:44 51°17.791 2°51.967 330.4 13.3 327 11.2
2007-04-23 07:22:49 51°17.806 2°51.951 330.4 13.3 327 11.4
2007-04-23 07:22:54 51°17.821 2°51.935 330.5 13.3 326 11.2
2007-04-23 07:22:59 51°17.836 2°51.918 330.9 13.3 326 11
2007-04-23 07:23:05 51°17.854 2°51.897 330 13.3 324 11.2
2007-04-23 07:23:09 51°17.866 2°51.883 328.3 13.3 323 11
2007-04-23 07:23:14 51°17.88 2°51.865 327.3 13.3 322 11.2
2007-04-23 07:23:19 51°17.895 2°51.847 326.4 13.3 322 11.1
2007-04-23 07:23:24 51°17.909 2°51.828 325.8 13.3 321 11.2
2007-04-23 07:23:29 51°17.923 2°51.81 325.3 13.3 321 10.9
2007-04-23 07:23:34 51°17.937 2°51.791 325 13.3 321 11.3
2007-04-23 07:23:39 51°17.952 2°51.773 324.6 13.3 321 11.2
2007-04-23 07:23:44 51°17.966 2°51.754 324.6 13.3 321 11.3
2007-04-23 07:23:49 51°17.98 2°51.736 324.7 13.3 321 11.4
2007-04-23 07:23:54 51°17.994 2°51.717 324.6 13.3 320 11.4
2007-04-23 07:23:59 51°18.008 2°51.698 323.9 13.3 320 11.5
2007-04-23 07:24:04 51°18.022 2°51.678 323.4 13.3 319 11.4
2007-04-23 07:24:09 51°18.036 2°51.659 322.8 13.3 319 11.5
2007-04-23 07:24:14 51°18.05 2°51.64 322.7 13.4 319 11.6
2007-04-23 07:24:19 51°18.064 2°51.62 322.6 13.4 319 11.6
2007-04-23 07:24:24 51°18.078 2°51.601 322.6 13.4 319 11.7
2007-04-23 07:24:29 51°18.092 2°51.582 322.5 13.4 320 11.9
2007-04-23 07:24:34 51°18.106 2°51.563 322.5 13.4 320 12.1
2007-04-23 07:24:39 51°18.12 2°51.543 322.6 13.4 320 11.9
2007-04-23 07:24:44 51°18.134 2°51.524 322.7 13.4 320 12
2007-04-23 07:24:49 51°18.149 2°51.505 322.7 13.4 320 12.4
2007-04-23 07:24:54 51°18.163 2°51.486 322.7 13.4 320 12.2
2007-04-23 07:24:59 51°18.177 2°51.467 322.7 13.4 320 12.3
2007-04-23 07:25:04 51°18.191 2°51.447 322.7 13.4 320 12.7
2007-04-23 07:25:09 51°18.205 2°51.428 322.6 13.4 319 12.8
2007-04-23 07:25:14 51°18.219 2°51.409 322.3 13.2 319 12.6
2007-04-23 07:25:19 51°18.232 2°51.391 322.1 12.7 319 12.7
2007-04-23 07:25:24 51°18.245 2°51.374 322 12 319 13
2007-04-23 07:25:29 51°18.256 2°51.358 322 11.3 319 13.2
2007-04-23 07:25:34 51°18.267 2°51.342 321.9 10.9 319 13.2
2007-04-23 07:25:39 51°18.278 2°51.327 321.7 10.4 319 13.4
2007-04-23 07:25:44 51°18.289 2°51.313 321.7 10 320 13.5
2007-04-23 07:25:49 51°18.299 2°51.299 321.9 9.7 320 13.6
2007-04-23 07:25:54 51°18.309 2°51.286 322.1 9.4 320 13.7
2007-04-23 07:25:59 51°18.319 2°51.273 322.3 9.2 320 13.7
2007-04-23 07:26:04 51°18.329 2°51.261 322.7 9 320 13.8
2007-04-23 07:26:09 51°18.338 2°51.248 322.7 8.8 320 13.8
2007-04-23 07:26:14 51°18.347 2°51.236 322.1 8.4 319 13.9
2007-04-23 07:26:19 51°18.356 2°51.224 321.6 8.2 319 14
2007-04-23 07:26:24 51°18.364 2°51.213 321.1 7.9 319 14
2007-04-23 07:26:29 51°18.372 2°51.202 320.9 7.7 319 14.1
2007-04-23 07:26:34 51°18.38 2°51.191 320.7 7.5 319 14.1
2007-04-23 07:26:39 51°18.387 2°51.18 320.4 7.3 319 14.2
2007-04-23 07:26:44 51°18.395 2°51.17 320.1 7.1 319 14.2
2007-04-23 07:26:49 51°18.402 2°51.16 319.8 7 318 14.3
2007-04-23 07:26:54 51°18.408 2°51.15 319.2 6.7 318 14.3
2007-04-23 07:26:59 51°18.415 2°51.14 318.3 6.3 315 14.3
2007-04-23 07:27:04 51°18.42 2°51.13 316.3 6 313 14.4
2007-04-23 07:27:09 51°18.426 2°51.12 313.6 5.8 311 14.5
2007-04-23 07:27:14 51°18.43 2°51.111 310.6 5.6 309 14.5
2007-04-23 07:27:19 51°18.435 2°51.101 307.7 5.3 307 14.5
2007-04-23 07:27:25 51°18.439 2°51.09 304.8 5.2 305 14.5
2007-04-23 07:27:29 51°18.442 2°51.083 302.8 5 304 14.5
2007-04-23 07:27:34 51°18.446 2°51.074 301.2 5 304 14.5
2007-04-23 07:27:39 51°18.45 2°51.065 300.5 4.8 303 14.6
2007-04-23 07:27:44 51°18.453 2°51.056 300.4 4.7 304 14.6
2007-04-23 07:27:49 51°18.457 2°51.048 301.1 4.6 305 14.6
2007-04-23 07:27:54 51°18.46 2°51.04 302.1 4.5 307 14.6
2007-04-23 07:27:59 51°18.464 2°51.032 303.5 4.5 308 14.6
2007-04-23 07:28:04 51°18.468 2°51.024 305.2 4.4 310 14.7
2007-04-23 07:28:09 51°18.472 2°51.017 306.7 4.3 310 14.7
2007-04-23 07:28:14 51°18.475 2°51.01 307.6 4.1 311 14.7
2007-04-23 07:28:19 51°18.479 2°51.003 308.1 4 311 14.7
2007-04-23 07:28:24 51°18.482 2°50.997 308.4 3.6 311 14.7
2007-04-23 07:28:29 51°18.485 2°50.992 308.8 3.3 312 14.7
2007-04-23 07:28:34 51°18.487 2°50.988 308.7 2.6 313 14.7
2007-04-23 07:28:39 51°18.49 2°50.985 307.1 2.2 315 14.8
2007-04-23 07:28:44 51°18.491 2°50.982 304.1 1.6 315 14.8
2007-04-23 07:28:49 51°18.492 2°50.981 301.9 1.1 326 14.8
2007-04-23 07:28:54 51°18.493 2°50.981 301.8 0.7 332 14.8
2007-04-23 07:28:59 51°18.494 2°50.981 303.8 0.6 358 14.8
2007-04-23 07:29:04 51°18.495 2°50.98 306.3 0.5 350 14.8
2007-04-23 07:29:09 51°18.495 2°50.98 308.1 0.6 358 14.9
2007-04-23 07:29:14 51°18.496 2°50.98 309.4 0.5 350 14.8
2007-04-23 07:29:19 51°18.497 2°50.98 310.5 0.6 357 14.8
2007-04-23 07:29:24 51°18.498 2°50.98 311.5 0.6 353 14.8
2007-04-23 07:29:29 51°18.499 2°50.98 312.4 0.6 358 14.8
2007-04-23 07:29:34 51°18.5 2°50.98 313.4 0.6 350 14.8
2007-04-23 07:29:39 51°18.5 2°50.98 314.3 0.7 -999 14.8
2007-04-23 07:29:45 51°18.501 2°50.98 315.3 0.6 356 14.8
2007-04-23 07:29:49 51°18.502 2°50.98 316.4 0.7 -999 14.8
2007-04-23 07:29:54 51°18.503 2°50.98 317.3 0.6 355 14.8
2007-04-23 07:29:59 51°18.504 2°50.98 318.1 0.7 -999 14.8
2007-04-23 07:30:04 51°18.505 2°50.98 319.3 0.6 358 14.8
2007-04-23 07:30:09 51°18.506 2°50.98 320.1 0.7 -999 14.8
2007-04-23 07:30:15 51°18.507 2°50.98 321.1 0.7 358 -999
2007-04-23 07:30:19 51°18.508 2°50.98 322.3 0.7 3 -999
2007-04-23 07:30:24 51°18.509 2°50.98 323.5 0.6 359 -999
2007-04-23 07:30:29 51°18.51 2°50.98 324.4 0.7 1 -999
2007-04-23 07:30:34 51°18.511 2°50.98 325.2 0.7 1 14.9
2007-04-23 07:30:39 51°18.512 2°50.98 325.9 0.6 1 4.7
2007-04-23 07:30:45 51°18.513 2°50.98 326.6 0.7 2 -999
2007-04-23 07:30:49 51°18.513 2°50.98 327.7 0.6 2 4.7
2007-04-23 07:30:54 51°18.514 2°50.98 328.7 0.6 1 4.6
2007-04-23 07:31:00 51°18.516 2°50.981 329.6 0.7 4 -999
2007-04-23 07:31:05 51°18.516 2°50.981 330.9 0.6 2 -999
2007-04-23 07:31:09 51°18.517 2°50.981 331.7 0.7 4 -999
2007-04-23 07:31:14 51°18.518 2°50.981 332.5 0.7 5 -999
2007-04-23 07:31:20 51°18.519 2°50.981 333.4 0.7 8 -999
2007-04-23 07:31:25 51°18.52 2°50.981 334.2 0.7 4 -999
2007-04-23 07:31:29 51°18.521 2°50.981 335.3 0.7 6 -999
2007-04-23 07:31:35 51°18.522 2°50.981 336.4 0.7 5 -999
2007-04-23 07:31:39 51°18.523 2°50.982 337.5 0.7 8 -999
2007-04-23 07:31:45 51°18.524 2°50.982 338.4 0.7 5 -999
2007-04-23 07:31:49 51°18.525 2°50.982 339.1 0.7 10 14.9
2007-04-23 07:31:54 51°18.526 2°50.982 339.6 0.7 9 5.1
2007-04-23 07:31:59 51°18.527 2°50.983 340.2 0.7 14 4.6
2007-04-23 07:32:04 51°18.528 2°50.983 340.7 0.7 8 14.9
2007-04-23 07:32:09 51°18.528 2°50.983 341.5 0.7 14 14.9
2007-04-23 07:32:14 51°18.529 2°50.983 342.3 0.7 6 14.9
2007-04-23 07:32:19 51°18.53 2°50.984 343.2 0.7 11 14.8
2007-04-23 07:32:24 51°18.531 2°50.984 343.8 0.6 10 14.9
2007-04-23 07:32:29 51°18.532 2°50.984 344.7 0.7 14 14.9
2007-04-23 07:32:34 51°18.533 2°50.984 345.4 0.7 12 14.9
2007-04-23 07:32:39 51°18.534 2°50.985 346 0.7 14 14.9
2007-04-23 07:32:44 51°18.535 2°50.985 346.7 0.7 9 14.9
2007-04-23 07:32:49 51°18.536 2°50.986 347.4 0.7 14 14.8
2007-04-23 07:32:54 51°18.537 2°50.986 347.8 0.7 12 14.8
2007-04-23 07:32:59 51°18.538 2°50.986 348.4 0.7 13 14.9
2007-04-23 07:33:04 51°18.539 2°50.987 349.1 0.7 14 14.9
2007-04-23 07:33:09 51°18.54 2°50.987 349.3 0.7 13 14.9
2007-04-23 07:33:14 51°18.54 2°50.987 349.9 0.7 16 14.8
2007-04-23 07:33:19 51°18.541 2°50.988 350.3 0.7 15 14.9
2007-04-23 07:33:24 51°18.542 2°50.988 350.6 0.7 17 14.9
2007-04-23 07:33:29 51°18.543 2°50.988 350.9 0.6 14 14.9
2007-04-23 07:33:34 51°18.544 2°50.989 351.2 0.7 14 14.9
2007-04-23 07:33:39 51°18.545 2°50.989 351.4 0.6 13 14.9
2007-04-23 07:33:44 51°18.546 2°50.99 351.7 0.7 17 14.9
2007-04-23 07:33:49 51°18.546 2°50.99 351.9 0.6 14 14.9
2007-04-23 07:33:54 51°18.547 2°50.99 352.1 0.7 17 14.9
2007-04-23 07:33:59 51°18.548 2°50.991 352.2 0.7 14 14.9
2007-04-23 07:34:04 51°18.549 2°50.991 352.4 0.7 15 14.8
2007-04-23 07:34:09 51°18.55 2°50.991 352.7 0.7 14 14.8
2007-04-23 07:34:14 51°18.551 2°50.992 352.7 0.7 16 14.9
2007-04-23 07:34:19 51°18.552 2°50.992 352.8 0.7 16 14.9
2007-04-23 07:34:25 51°18.553 2°50.993 352.9 0.7 16 14.9
2007-04-23 07:34:29 51°18.554 2°50.993 352.9 0.6 14 14.9
2007-04-23 07:34:34 51°18.555 2°50.993 352.9 0.6 15 14.9
2007-04-23 07:34:39 51°18.556 2°50.994 353 0.6 14 14.9
2007-04-23 07:34:44 51°18.557 2°50.994 353 0.7 17 14.9
2007-04-23 07:34:49 51°18.557 2°50.994 352.9 0.6 13 14.9
2007-04-23 07:34:54 51°18.558 2°50.995 352.7 0.6 16 14.9
2007-04-23 07:34:59 51°18.559 2°50.995 352.7 0.7 14 14.9
2007-04-23 07:35:04 51°18.56 2°50.996 352.6 0.6 14 14.9
2007-04-23 07:35:09 51°18.561 2°50.996 352.4 0.7 17 14.9
2007-04-23 07:35:14 51°18.562 2°50.997 352.1 0.6 15 14.9
2007-04-23 07:35:19 51°18.563 2°50.997 352 0.7 16 14.9
2007-04-23 07:35:24 51°18.563 2°50.997 351.7 0.6 13 14.9
2007-04-23 07:35:29 51°18.564 2°50.998 351.3 0.7 16 14.9
2007-04-23 07:35:34 51°18.565 2°50.998 351.1 0.8 9 14.9
2007-04-23 07:35:39 51°18.567 2°50.998 350.7 1.1 3 15
2007-04-23 07:35:44 51°18.569 2°50.998 350.7 1.5 359 14.9
2007-04-23 07:35:49 51°18.572 2°50.998 351.1 1.9 358 14.9
2007-04-23 07:35:54 51°18.575 2°50.997 352.1 2.4 356 14.9
2007-04-23 07:35:59 51°18.58 2°50.997 353.5 3.3 358 14.9
2007-04-23 07:36:04 51°18.585 2°50.997 355.9 4.1 359 14.9
2007-04-23 07:36:09 51°18.592 2°50.997 359.2 4.8 3 14.9
2007-04-23 07:36:14 51°18.6 2°50.999 4.3 5.3 6 14.9
2007-04-23 07:36:19 51°18.608 2°51.002 8.1 5.9 12 15
2007-04-23 07:36:24 51°18.617 2°51.006 14.6 6.5 19 14.9
2007-04-23 07:36:29 51°18.625 2°51.012 19.2 6.9 24 14.9
2007-04-23 07:36:34 51°18.634 2°51.02 25.4 7.2 28 14.9
2007-04-23 07:36:39 51°18.643 2°51.03 31.2 7.6 34 15
2007-04-23 07:36:45 51°18.653 2°51.045 37.1 8.2 41 15
2007-04-23 07:36:49 51°18.659 2°51.056 43.1 8.7 48 15.1
2007-04-23 07:36:54 51°18.666 2°51.073 51.3 9.1 56 14.9
2007-04-23 07:36:59 51°18.672 2°51.092 57.2 9.4 61 15
2007-04-23 07:37:04 51°18.677 2°51.112 64.5 9.7 69 15
2007-04-23 07:37:09 51°18.681 2°51.134 73.1 10.1 74 14.9
2007-04-23 07:37:14 51°18.683 2°51.156 77.9 10.3 80 14.9
2007-04-23 07:37:19 51°18.686 2°51.179 82.8 10.5 79 15
2007-04-23 07:37:24 51°18.689 2°51.203 84.4 10.8 79 14.9
2007-04-23 07:37:29 51°18.692 2°51.227 84.4 11 79 15
2007-04-23 07:37:34 51°18.695 2°51.251 84.6 11.2 78 14.9
2007-04-23 07:37:39 51°18.699 2°51.275 83.5 11.3 75 15
2007-04-23 07:37:44 51°18.703 2°51.299 81 11.4 74 14.9
2007-04-23 07:37:49 51°18.708 2°51.324 79.3 11.5 73 15
2007-04-23 07:37:54 51°18.713 2°51.348 77.8 11.6 72 15
2007-04-23 07:37:59 51°18.718 2°51.373 76.8 11.6 71 14.9
2007-04-23 07:38:04 51°18.724 2°51.397 76.1 11.7 70 14.9
2007-04-23 07:38:09 51°18.729 2°51.422 75.1 11.8 70 14.8
2007-04-23 07:38:14 51°18.735 2°51.446 74.6 11.8 69 14.8
2007-04-23 07:38:19 51°18.741 2°51.47 74.1 11.8 69 14.7
2007-04-23 07:38:25 51°18.749 2°51.5 73.7 11.9 68 14.7
2007-04-23 07:38:29 51°18.753 2°51.519 73.4 11.9 68 14.8
2007-04-23 07:38:34 51°18.759 2°51.544 73.4 11.9 68 14.8
2007-04-23 07:38:39 51°18.765 2°51.568 73.4 11.9 69 14.7
2007-04-23 07:38:44 51°18.771 2°51.593 73.8 11.9 69 14.7
2007-04-23 07:38:49 51°18.777 2°51.618 74.2 11.9 70 14.7
2007-04-23 07:38:54 51°18.783 2°51.642 74.6 11.9 70 14.6
2007-04-23 07:38:59 51°18.788 2°51.668 74.8 11.9 71 14.7
2007-04-23 07:39:05 51°18.795 2°51.698 75.2 12.3 70 14.6
2007-04-23 07:39:09 51°18.799 2°51.719 75.3 12.6 70 14.5
2007-04-23 07:39:14 51°18.806 2°51.746 75.1 12.7 70 14.6
2007-04-23 07:39:19 51°18.812 2°51.773 74.6 12.9 70 14.5
2007-04-23 07:39:24 51°18.818 2°51.8 74.6 13.1 70 14.4
2007-04-23 07:39:29 51°18.825 2°51.827 74.6 13.2 69 14.5
2007-04-23 07:39:34 51°18.831 2°51.855 74.2 13.2 70 14.4
2007-04-23 07:39:39 51°18.838 2°51.882 74.2 13.3 69 14.3
2007-04-23 07:39:44 51°18.844 2°51.91 74.2 13.3 70 14.3
2007-04-23 07:39:49 51°18.851 2°51.938 74.1 13.3 70 14.3
2007-04-23 07:39:54 51°18.857 2°51.965 74.3 13.3 70 14.3
2007-04-23 07:39:59 51°18.863 2°51.993 74.4 13.3 70 14.3
2007-04-23 07:40:04 51°18.87 2°52.02 74.6 13.3 70 14.2
2007-04-23 07:40:09 51°18.876 2°52.048 74.7 13.4 70 14.1
2007-04-23 07:40:14 51°18.882 2°52.076 74.7 13.3 70 14.1
2007-04-23 07:40:19 51°18.889 2°52.104 74.7 13.3 70 14
2007-04-23 07:40:24 51°18.895 2°52.131 74.7 13.4 70 14.1
2007-04-23 07:40:29 51°18.902 2°52.159 74.5 13.4 70 14
2007-04-23 07:40:34 51°18.908 2°52.187 74.3 13.4 70 14.1
2007-04-23 07:40:39 51°18.915 2°52.215 74.2 13.4 70 14
2007-04-23 07:40:44 51°18.921 2°52.243 74.5 13.4 70 13.9
2007-04-23 07:40:49 51°18.927 2°52.271 74.6 13.4 70 13.8
2007-04-23 07:40:54 51°18.933 2°52.298 74.8 13.3 70 13.8
2007-04-23 07:40:59 51°18.939 2°52.326 74.9 13.3 70 13.8
2007-04-23 07:41:05 51°18.947 2°52.359 75.1 13.3 70 13.7
2007-04-23 07:41:09 51°18.952 2°52.382 74.7 13.3 70 13.7
2007-04-23 07:41:14 51°18.958 2°52.41 74.6 13.4 71 13.6
2007-04-23 07:41:19 51°18.964 2°52.437 75 13.4 70 13.6
2007-04-23 07:41:24 51°18.971 2°52.465 75.1 13.4 70 13.6
2007-04-23 07:41:29 51°18.977 2°52.493 75 13.3 70 13.5
2007-04-23 07:41:34 51°18.983 2°52.521 75 13.3 70 13.6
2007-04-23 07:41:39 51°18.99 2°52.549 74.7 13.4 70 13.5
2007-04-23 07:41:44 51°18.996 2°52.577 74.5 13.4 69 13.5
2007-04-23 07:41:49 51°19.002 2°52.604 74.2 13.4 70 13.4
2007-04-23 07:41:54 51°19.009 2°52.632 74.1 13.3 70 13.4
2007-04-23 07:41:59 51°19.015 2°52.66 74.6 13.3 70 13.4
2007-04-23 07:42:04 51°19.021 2°52.688 74.7 13.3 70 13.3
2007-04-23 07:42:09 51°19.027 2°52.716 74.7 13.3 71 13.3
2007-04-23 07:42:14 51°19.033 2°52.744 75 13.4 71 13.3
2007-04-23 07:42:19 51°19.039 2°52.772 75.5 13.4 71 13.2
2007-04-23 07:42:24 51°19.046 2°52.799 75.4 13.3 70 13.2
2007-04-23 07:42:29 51°19.052 2°52.827 75.2 13.3 71 13.2
2007-04-23 07:42:34 51°19.058 2°52.855 75.1 13.4 70 13.1
2007-04-23 07:42:39 51°19.065 2°52.883 74.9 13.4 70 13.1
2007-04-23 07:42:44 51°19.071 2°52.911 74.7 13.4 70 13.1
2007-04-23 07:42:49 51°19.077 2°52.938 74.6 13.4 70 13.1
2007-04-23 07:42:54 51°19.083 2°52.966 74.3 13.4 70 13
2007-04-23 07:42:59 51°19.09 2°52.994 74.4 13.3 70 13
2007-04-23 07:43:04 51°19.096 2°53.022 74.7 13.3 71 13
2007-04-23 07:43:09 51°19.102 2°53.05 75.2 13.4 70 12.9
2007-04-23 07:43:14 51°19.109 2°53.077 75.1 13.3 70 12.9
2007-04-23 07:43:19 51°19.115 2°53.105 74.6 13.3 70 12.9
2007-04-23 07:43:25 51°19.123 2°53.138 74.6 13.3 69 12.9
2007-04-23 07:43:29 51°19.128 2°53.16 74.6 13.3 70 12.9
2007-04-23 07:43:34 51°19.134 2°53.188 74.1 13.4 70 12.9
2007-04-23 07:43:39 51°19.14 2°53.216 74.6 13.4 71 12.8
2007-04-23 07:43:44 51°19.146 2°53.244 74.8 13.3 70 12.8
2007-04-23 07:43:49 51°19.152 2°53.272 74.8 13.3 71 12.9
2007-04-23 07:43:54 51°19.159 2°53.3 75 13.4 70 12.9
2007-04-23 07:43:59 51°19.164 2°53.328 75.3 13.4 72 12.9
2007-04-23 07:44:04 51°19.171 2°53.356 75.7 13.4 70 12.8
2007-04-23 07:44:09 51°19.177 2°53.384 75.8 13.4 71 12.8
2007-04-23 07:44:14 51°19.183 2°53.412 75.4 13.3 70 12.8
2007-04-23 07:44:19 51°19.189 2°53.44 75.2 13.4 71 12.8
2007-04-23 07:44:24 51°19.195 2°53.468 75.4 13.5 70 12.8
2007-04-23 07:44:29 51°19.202 2°53.496 75.2 13.4 70 12.8
2007-04-23 07:44:34 51°19.208 2°53.524 74.9 13.4 71 12.8
2007-04-23 07:44:39 51°19.214 2°53.552 75.4 13.5 70 12.8
2007-04-23 07:44:44 51°19.221 2°53.58 75.1 13.4 70 12.8
2007-04-23 07:44:49 51°19.227 2°53.607 74.9 13.4 70 12.8
2007-04-23 07:44:54 51°19.233 2°53.635 74.8 13.4 70 12.8
2007-04-23 07:44:59 51°19.239 2°53.664 75.1 13.4 71 12.7
2007-04-23 07:45:04 51°19.246 2°53.691 75.5 13.4 70 12.8
2007-04-23 07:45:09 51°19.252 2°53.72 75.5 13.4 71 12.8
2007-04-23 07:45:14 51°19.258 2°53.747 75.8 13.4 71 12.7
2007-04-23 07:45:19 51°19.264 2°53.775 75.8 13.4 71 12.8
2007-04-23 07:45:24 51°19.27 2°53.803 75.6 13.4 70 12.7
2007-04-23 07:45:29 51°19.277 2°53.831 75.6 13.5 70 12.8
2007-04-23 07:45:34 51°19.283 2°53.86 75.3 13.5 70 12.7
2007-04-23 07:45:39 51°19.29 2°53.888 75.2 13.5 70 12.7
2007-04-23 07:45:45 51°19.297 2°53.921 75.2 13.5 71 12.8
2007-04-23 07:45:49 51°19.302 2°53.944 75.4 13.4 71 12.8
2007-04-23 07:45:54 51°19.308 2°53.972 75.7 13.4 70 12.7
2007-04-23 07:45:59 51°19.315 2°54 75.4 13.4 69 12.7
2007-04-23 07:46:04 51°19.321 2°54.027 74.7 13.4 70 12.7
2007-04-23 07:46:09 51°19.328 2°54.055 74.7 13.3 70 12.6
2007-04-23 07:46:14 51°19.334 2°54.083 74.7 13.3 70 12.7
2007-04-23 07:46:19 51°19.34 2°54.111 74.8 13.3 70 12.6
2007-04-23 07:46:24 51°19.347 2°54.138 75.1 13.3 70 12.7
2007-04-23 07:46:29 51°19.353 2°54.166 75.2 13.3 70 12.7
2007-04-23 07:46:34 51°19.359 2°54.194 75.1 13.2 70 12.7
2007-04-23 07:46:39 51°19.365 2°54.222 75.3 13.3 70 12.6
2007-04-23 07:46:44 51°19.371 2°54.249 75.4 13.3 70 12.6
2007-04-23 07:46:49 51°19.378 2°54.277 75.5 13.2 70 12.7
2007-04-23 07:46:54 51°19.384 2°54.305 75.4 13.3 71 12.7
2007-04-23 07:46:59 51°19.39 2°54.333 75.6 13.3 71 12.7
2007-04-23 07:47:04 51°19.396 2°54.36 75.7 13.3 70 12.7
2007-04-23 07:47:09 51°19.402 2°54.388 75.5 13.3 70 12.7
2007-04-23 07:47:14 51°19.409 2°54.416 75.1 13.3 70 12.7
2007-04-23 07:47:19 51°19.415 2°54.443 75.3 13.3 70 12.7
2007-04-23 07:47:24 51°19.421 2°54.471 75.5 13.3 71 12.7
2007-04-23 07:47:29 51°19.427 2°54.499 75.6 13.3 70 12.7
2007-04-23 07:47:34 51°19.433 2°54.527 75.4 13.3 70 12.8
2007-04-23 07:47:39 51°19.44 2°54.554 75.3 13.3 71 12.7
2007-04-23 07:47:45 51°19.447 2°54.588 75.5 13.2 71 12.7
2007-04-23 07:47:49 51°19.452 2°54.609 75.7 13.2 70 12.7
2007-04-23 07:47:54 51°19.458 2°54.637 75.7 13.2 71 12.7
2007-04-23 07:47:59 51°19.464 2°54.665 75.4 13.3 70 12.6
2007-04-23 07:48:04 51°19.47 2°54.693 75.4 13.2 71 12.7
2007-04-23 07:48:09 51°19.476 2°54.72 75.4 13.2 70 12.7
2007-04-23 07:48:14 51°19.482 2°54.748 75.5 13.2 70 12.6
2007-04-23 07:48:19 51°19.489 2°54.775 75.4 13.2 70 12.6
2007-04-23 07:48:24 51°19.495 2°54.803 75.4 13.3 70 12.7
2007-04-23 07:48:29 51°19.501 2°54.831 75.4 13.3 71 12.7
2007-04-23 07:48:34 51°19.507 2°54.858 75.4 13.3 70 12.6
2007-04-23 07:48:39 51°19.514 2°54.886 75.4 13.3 70 12.6
2007-04-23 07:48:44 51°19.52 2°54.914 75.1 13.3 70 12.6
2007-04-23 07:48:49 51°19.526 2°54.941 75 13.3 70 12.6
2007-04-23 07:48:54 51°19.532 2°54.969 75.5 13.3 70 12.7
2007-04-23 07:48:59 51°19.539 2°54.997 75.6 13.3 70 12.6
2007-04-23 07:49:04 51°19.545 2°55.024 75.2 13.3 70 12.6
2007-04-23 07:49:09 51°19.551 2°55.052 75.1 13.3 70 12.6
2007-04-23 07:49:14 51°19.558 2°55.08 75.1 13.3 70 12.6
2007-04-23 07:49:19 51°19.564 2°55.107 75 13.2 69 12.6
2007-04-23 07:49:24 51°19.571 2°55.135 74.9 13.2 70 12.6
2007-04-23 07:49:29 51°19.577 2°55.162 75.1 13.2 70 12.6
2007-04-23 07:49:34 51°19.583 2°55.19 75.2 13.2 70 12.6
2007-04-23 07:49:39 51°19.589 2°55.217 75.2 13.2 70 12.6
2007-04-23 07:49:44 51°19.596 2°55.245 75.3 13.2 70 12.7
2007-04-23 07:49:49 51°19.602 2°55.272 75.3 13.2 70 12.6
2007-04-23 07:49:54 51°19.608 2°55.299 75.2 13.3 70 12.6
2007-04-23 07:49:59 51°19.615 2°55.327 74.9 13.2 69 12.6
2007-04-23 07:50:05 51°19.623 2°55.36 74.9 13.3 70 12.6
2007-04-23 07:50:09 51°19.627 2°55.382 74.9 13.2 70 12.6
2007-04-23 07:50:14 51°19.633 2°55.41 75.2 13.2 71 12.5
2007-04-23 07:50:19 51°19.64 2°55.437 75.4 13.2 70 12.5
2007-04-23 07:50:24 51°19.646 2°55.465 75.4 13.2 71 12.5
2007-04-23 07:50:29 51°19.652 2°55.492 75.4 13.2 70 12.5
2007-04-23 07:50:34 51°19.658 2°55.52 75.5 13.2 71 12.5
2007-04-23 07:50:39 51°19.665 2°55.547 75.5 13.2 69 12.5
2007-04-23 07:50:44 51°19.671 2°55.575 74.9 13.2 70 12.4
2007-04-23 07:50:50 51°19.679 2°55.608 74.5 13.2 70 12.5
2007-04-23 07:50:54 51°19.683 2°55.63 75 13.2 70 12.4
2007-04-23 07:50:59 51°19.69 2°55.657 75.2 13.2 70 12.4
2007-04-23 07:51:04 51°19.696 2°55.685 75.3 13.2 70 12.4
2007-04-23 07:51:09 51°19.702 2°55.712 75.3 13.2 70 12.4
2007-04-23 07:51:14 51°19.709 2°55.74 75.2 13.2 70 12.3
2007-04-23 07:51:19 51°19.715 2°55.767 75.1 13.2 70 12.3
2007-04-23 07:51:24 51°19.721 2°55.795 75 13.2 71 12.3
2007-04-23 07:51:29 51°19.727 2°55.822 75.4 13.3 70 12.3
2007-04-23 07:51:34 51°19.734 2°55.85 75.6 13.3 70 12.3
2007-04-23 07:51:39 51°19.74 2°55.877 75.4 13.2 69 12.3
2007-04-23 07:51:44 51°19.746 2°55.905 74.9 13.2 70 12.3
2007-04-23 07:51:49 51°19.752 2°55.932 75.2 13.3 69 12.2
2007-04-23 07:51:54 51°19.759 2°55.96 75.1 13.2 70 12.2
2007-04-23 07:51:59 51°19.765 2°55.987 74.7 13.1 70 12.2
2007-04-23 07:52:04 51°19.771 2°56.015 75.3 13.1 71 12.2
2007-04-23 07:52:09 51°19.777 2°56.042 75.6 13.2 71 12.2
2007-04-23 07:52:14 51°19.783 2°56.07 75.7 13.2 70 12.1
2007-04-23 07:52:19 51°19.789 2°56.097 75.4 13.2 71 12.1
2007-04-23 07:52:25 51°19.797 2°56.13 75.4 13.2 70 12.1
2007-04-23 07:52:29 51°19.801 2°56.152 75.6 13.1 71 12.2
2007-04-23 07:52:34 51°19.807 2°56.179 75.9 13.1 70 12.1
2007-04-23 07:52:39 51°19.813 2°56.207 76 13.1 71 12.1
2007-04-23 07:52:44 51°19.82 2°56.234 76 13.2 69 12.1
2007-04-23 07:52:49 51°19.826 2°56.262 75 13.2 71 12.1
2007-04-23 07:52:54 51°19.833 2°56.289 75.2 13.2 69 12
2007-04-23 07:52:59 51°19.839 2°56.316 75.3 13.1 70 12
2007-04-23 07:53:04 51°19.845 2°56.344 75.2 13.1 70 12
2007-04-23 07:53:09 51°19.851 2°56.371 75.8 13.1 70 12
2007-04-23 07:53:14 51°19.857 2°56.398 75.7 13.1 70 12
2007-04-23 07:53:19 51°19.863 2°56.425 75.6 13.1 70 12
2007-04-23 07:53:24 51°19.869 2°56.453 75.4 13.1 70 12
2007-04-23 07:53:29 51°19.875 2°56.48 75.6 13.1 70 12
2007-04-23 07:53:34 51°19.881 2°56.507 75.4 13.1 70 12
2007-04-23 07:53:39 51°19.888 2°56.534 75.7 13.1 69 12
2007-04-23 07:53:44 51°19.893 2°56.562 74.7 13.1 72 12
2007-04-23 07:53:49 51°19.9 2°56.588 75.4 13.1 68 12
2007-04-23 07:53:55 51°19.907 2°56.622 74.3 13.1 72 11.9
2007-04-23 07:53:59 51°19.913 2°56.643 75.2 13.1 68 11.9
2007-04-23 07:54:05 51°19.92 2°56.676 75 13.1 72 12.2
2007-04-23 07:54:09 51°19.925 2°56.698 75.3 13.2 70 12
2007-04-23 07:54:14 51°19.931 2°56.725 75.8 13.1 70 11.9
2007-04-23 07:54:19 51°19.937 2°56.753 75 13.1 71 11.9
2007-04-23 07:54:25 51°19.944 2°56.785 75.4 13.1 70 11.9
2007-04-23 07:54:29 51°19.95 2°56.807 75.3 13.1 70 11.9
2007-04-23 07:54:34 51°19.956 2°56.834 75.4 13.1 69 11.8
2007-04-23 07:54:39 51°19.962 2°56.861 74.9 13.1 69 11.8
2007-04-23 07:54:45 51°19.97 2°56.894 74.6 13.1 70 11.9
2007-04-23 07:54:49 51°19.975 2°56.916 75 13.1 69 11.8
2007-04-23 07:54:54 51°19.982 2°56.943 74.8 13 69 11.8
2007-04-23 07:54:59 51°19.988 2°56.969 74.8 13 69 11.8
2007-04-23 07:55:04 51°19.994 2°56.996 74.8 13 69 11.8
2007-04-23 07:55:09 51°20.001 2°57.023 74.8 13 69 11.8
2007-04-23 07:55:14 51°20.007 2°57.05 74.6 13 69 11.8
2007-04-23 07:55:19 51°20.013 2°57.077 74.6 13 70 11.8
2007-04-23 07:55:24 51°20.02 2°57.104 74.8 13 70 11.8
2007-04-23 07:55:30 51°20.027 2°57.136 75.3 13 70 11.8
2007-04-23 07:55:34 51°20.031 2°57.158 75.5 13 71 11.9
2007-04-23 07:55:39 51°20.037 2°57.185 75.6 12.9 71 11.9
2007-04-23 07:55:44 51°20.043 2°57.212 75.8 13 71 11.8
2007-04-23 07:55:49 51°20.05 2°57.24 76 13 70 11.8
2007-04-23 07:55:54 51°20.056 2°57.267 75.3 13 70 11.8
2007-04-23 07:55:59 51°20.062 2°57.294 75.2 13 70 11.8
2007-04-23 07:56:04 51°20.068 2°57.321 75.2 13 70 11.8
2007-04-23 07:56:09 51°20.074 2°57.348 75.2 13.1 70 11.9
2007-04-23 07:56:14 51°20.08 2°57.375 75.3 13.1 70 11.8
2007-04-23 07:56:19 51°20.086 2°57.403 75.3 13 71 11.8
2007-04-23 07:56:24 51°20.092 2°57.43 75.3 13.1 71 11.8
2007-04-23 07:56:29 51°20.098 2°57.457 75.6 13.1 70 11.8
2007-04-23 07:56:34 51°20.105 2°57.485 75.1 13.1 70 11.9
2007-04-23 07:56:39 51°20.111 2°57.512 74.9 13.1 70 12
2007-04-23 07:56:45 51°20.118 2°57.545 74.9 13.1 70 11.9
2007-04-23 07:56:49 51°20.123 2°57.567 75 13.1 71 11.9
2007-04-23 07:56:54 51°20.129 2°57.594 75.4 13.1 70 11.8
2007-04-23 07:56:59 51°20.135 2°57.621 75.6 13.1 69 11.8
2007-04-23 07:57:05 51°20.143 2°57.654 74.9 13.1 70 11.7
2007-04-23 07:57:09 51°20.148 2°57.676 74.8 13.1 70 11.7
2007-04-23 07:57:14 51°20.154 2°57.703 75.1 13.1 70 11.7
2007-04-23 07:57:19 51°20.16 2°57.73 75.1 13.1 70 11.9
2007-04-23 07:57:24 51°20.166 2°57.758 75.2 13.1 71 11.7
2007-04-23 07:57:30 51°20.173 2°57.79 75.6 13.1 70 11.7
2007-04-23 07:57:34 51°20.178 2°57.812 75.6 13 71 11.8
2007-04-23 07:57:39 51°20.184 2°57.84 75.7 13.1 71 11.7
2007-04-23 07:57:44 51°20.19 2°57.867 75.8 13.1 70 11.7
2007-04-23 07:57:49 51°20.197 2°57.894 75.1 13 70 11.7
2007-04-23 07:57:54 51°20.203 2°57.921 74.7 13 70 11.7
2007-04-23 07:57:59 51°20.209 2°57.949 74.9 13.1 70 11.6
2007-04-23 07:58:04 51°20.216 2°57.976 75.1 13.1 69 11.9
2007-04-23 07:58:09 51°20.222 2°58.003 74.5 13 71 11.7
2007-04-23 07:58:15 51°20.229 2°58.036 75 13.1 70 11.6
2007-04-23 07:58:19 51°20.234 2°58.058 75.3 13.1 71 11.6
2007-04-23 07:58:25 51°20.241 2°58.091 75.7 13.1 71 11.6
2007-04-23 07:58:29 51°20.246 2°58.113 75.7 13.1 71 11.7
2007-04-23 07:58:34 51°20.252 2°58.14 75.9 13.1 70 11.7
2007-04-23 07:58:39 51°20.258 2°58.168 75.7 13.1 70 11.6
2007-04-23 07:58:44 51°20.264 2°58.195 75.3 13.2 71 11.6
2007-04-23 07:58:49 51°20.27 2°58.223 75.4 13.2 70 11.6
2007-04-23 07:58:54 51°20.277 2°58.25 75.5 13.1 70 11.6
2007-04-23 07:58:59 51°20.283 2°58.277 75.2 13.1 70 11.6
2007-04-23 07:59:05 51°20.291 2°58.31 74.7 13.1 70 11.5
2007-04-23 07:59:09 51°20.296 2°58.332 74.7 13.1 70 11.5
2007-04-23 07:59:14 51°20.301 2°58.359 74.9 13.1 71 11.6
2007-04-23 07:59:19 51°20.308 2°58.386 75.6 13.1 70 11.5
2007-04-23 07:59:25 51°20.315 2°58.419 75.5 13.1 70 11.5
2007-04-23 07:59:29 51°20.32 2°58.441 75.5 13.1 70 11.5
2007-04-23 07:59:34 51°20.327 2°58.469 75.4 13.1 70 11.5
2007-04-23 07:59:39 51°20.333 2°58.496 75.4 13.1 70 11.5
2007-04-23 07:59:44 51°20.339 2°58.523 75.5 13.1 70 11.5
2007-04-23 07:59:49 51°20.345 2°58.551 75.4 13 70 11.5
2007-04-23 07:59:54 51°20.352 2°58.578 75.2 13 70 11.4
2007-04-23 07:59:59 51°20.358 2°58.605 75.4 13 70 11.4
2007-04-23 08:00:04 51°20.364 2°58.632 75.5 13 70 11.4
2007-04-23 08:00:10 51°20.372 2°58.664 75.4 13 69 11.4
2007-04-23 08:00:14 51°20.377 2°58.686 74.8 13 70 11.4
2007-04-23 08:00:19 51°20.383 2°58.713 74.7 13 70 11.5
2007-04-23 08:00:24 51°20.389 2°58.74 75 13.1 70 11.4
2007-04-23 08:00:29 51°20.396 2°58.767 75.3 13 70 11.4
2007-04-23 08:00:35 51°20.403 2°58.8 75.3 13 70 11.4
2007-04-23 08:00:39 51°20.408 2°58.821 75.3 12.9 70 11.4
2007-04-23 08:00:44 51°20.414 2°58.848 75.4 12.9 70 11.3
2007-04-23 08:00:49 51°20.42 2°58.876 75.4 12.9 70 11.3
2007-04-23 08:00:54 51°20.426 2°58.903 75.4 13 70 11.3
2007-04-23 08:00:59 51°20.432 2°58.93 75.5 12.9 70 11.3
2007-04-23 08:01:05 51°20.439 2°58.962 75.3 13 70 11.4
2007-04-23 08:01:09 51°20.444 2°58.984 75.4 13 70 11.4
2007-04-23 08:01:14 51°20.45 2°59.011 75.4 12.9 71 11.4
2007-04-23 08:01:19 51°20.456 2°59.038 75.4 12.9 71 11.3
2007-04-23 08:01:24 51°20.462 2°59.065 75.5 12.9 71 11.3
2007-04-23 08:01:29 51°20.468 2°59.092 75.7 12.9 71 11.3
2007-04-23 08:01:34 51°20.474 2°59.119 75.5 12.9 70 11.3
2007-04-23 08:01:39 51°20.48 2°59.146 75.4 12.9 70 11.3
2007-04-23 08:01:45 51°20.487 2°59.178 74.9 12.9 71 11.3
2007-04-23 08:01:49 51°20.492 2°59.2 74.8 12.9 70 11.3
2007-04-23 08:01:54 51°20.498 2°59.227 75.2 12.9 70 11.3
2007-04-23 08:01:59 51°20.504 2°59.254 75 12.9 71 11.2
2007-04-23 08:02:04 51°20.51 2°59.28 75 12.8 71 11.3
2007-04-23 08:02:09 51°20.515 2°59.307 75.6 12.8 71 11.3
2007-04-23 08:02:14 51°20.521 2°59.334 76 12.9 71 11.3
2007-04-23 08:02:19 51°20.527 2°59.361 76 12.9 71 11.3
2007-04-23 08:02:24 51°20.533 2°59.388 75.6 12.8 71 11.3
2007-04-23 08:02:29 51°20.539 2°59.415 75.5 12.9 70 11.3
2007-04-23 08:02:34 51°20.545 2°59.442 75.4 12.9 71 11.3
2007-04-23 08:02:39 51°20.55 2°59.469 75.2 12.8 71 11.3
2007-04-23 08:02:44 51°20.556 2°59.496 75.5 12.9 71 11.3
2007-04-23 08:02:49 51°20.562 2°59.523 75.7 12.8 71 11.4
2007-04-23 08:02:54 51°20.568 2°59.55 75.5 12.8 71 11.3
2007-04-23 08:02:59 51°20.574 2°59.577 75.5 12.9 71 11.3
2007-04-23 08:03:04 51°20.58 2°59.604 75.4 12.9 70 11.2
2007-04-23 08:03:09 51°20.586 2°59.63 75 12.8 71 11.3
2007-04-23 08:03:14 51°20.591 2°59.657 74.9 12.9 71 11.2
2007-04-23 08:03:19 51°20.597 2°59.684 75.1 12.8 70 11.2
2007-04-23 08:03:25 51°20.604 2°59.716 75 12.9 71 11.3
2007-04-23 08:03:29 51°20.609 2°59.738 75.4 12.9 70 11.3
2007-04-23 08:03:34 51°20.616 2°59.765 75.4 13 70 11.3
2007-04-23 08:03:39 51°20.622 2°59.792 75 12.9 70 11.2
2007-04-23 08:03:45 51°20.629 2°59.824 74.8 12.9 70 11.3
2007-04-23 08:03:49 51°20.634 2°59.845 74.9 13 69 11.2
2007-04-23 08:03:54 51°20.64 2°59.872 74.8 12.9 70 11.2
2007-04-23 08:03:59 51°20.646 2°59.899 74.7 12.9 70 11.2
2007-04-23 08:04:05 51°20.654 2°59.931 75 12.9 70 11.3
2007-04-23 08:04:10 51°20.66 2°59.958 75.2 12.9 70 11.2
2007-04-23 08:04:14 51°20.665 2°59.98 75.1 12.9 70 11.2
2007-04-23 08:04:19 51°20.671 3°0.007 75.3 13 71 11.2
2007-04-23 08:04:24 51°20.678 3°0.034 75.6 13 68 11.2
2007-04-23 08:04:29 51°20.683 3°0.061 74.4 12.9 71 11.2
2007-04-23 08:04:34 51°20.69 3°0.088 75.1 13 70 11.2
2007-04-23 08:04:39 51°20.696 3°0.115 75.9 13.1 69 11.2
2007-04-23 08:04:44 51°20.702 3°0.142 74.7 13 70 11.2
2007-04-23 08:04:49 51°20.708 3°0.169 75.2 12.9 71 11.2
2007-04-23 08:04:55 51°20.716 3°0.202 76.1 13 69 11.2
2007-04-23 08:04:59 51°20.721 3°0.223 75.4 13 70 11.2
2007-04-23 08:05:04 51°20.727 3°0.251 74.9 13 71 11.2
2007-04-23 08:05:09 51°20.733 3°0.278 75.8 13 71 11.2
2007-04-23 08:05:14 51°20.739 3°0.305 76 13.1 70 11.2
2007-04-23 08:05:19 51°20.745 3°0.332 75.3 13 71 11.2
2007-04-23 08:05:24 51°20.751 3°0.359 75.4 13 70 11.2
2007-04-23 08:05:29 51°20.757 3°0.386 76 13 70 11.2
2007-04-23 08:05:34 51°20.763 3°0.413 75.4 13 70 11.2
2007-04-23 08:05:39 51°20.77 3°0.44 75.3 13.1 70 11.2
2007-04-23 08:05:44 51°20.776 3°0.467 75.4 13 70 11.2
2007-04-23 08:05:49 51°20.782 3°0.494 75.5 13 70 11.2
2007-04-23 08:05:54 51°20.788 3°0.521 75.6 13 70 11.2
2007-04-23 08:05:59 51°20.794 3°0.549 75.7 13.1 70 11.1
2007-04-23 08:06:05 51°20.802 3°0.581 75.4 13 69 11.1
2007-04-23 08:06:09 51°20.808 3°0.602 74.7 13 69 11.1
2007-04-23 08:06:14 51°20.814 3°0.63 74.5 13 70 11.1
2007-04-23 08:06:19 51°20.82 3°0.657 75 13.1 70 11.1
2007-04-23 08:06:24 51°20.826 3°0.684 75.5 13.1 69 11.1
2007-04-23 08:06:29 51°20.833 3°0.711 75.2 13 69 11.1
2007-04-23 08:06:34 51°20.839 3°0.738 74.8 13 70 11.2
2007-04-23 08:06:39 51°20.845 3°0.765 75.4 13 70 11.1
2007-04-23 08:06:44 51°20.852 3°0.792 75.8 13.1 69 11.1
2007-04-23 08:06:50 51°20.859 3°0.824 75.6 13 69 11.1
2007-04-23 08:06:54 51°20.864 3°0.846 75.1 13 70 11.1
2007-04-23 08:06:59 51°20.871 3°0.873 75.4 13 70 11.1
2007-04-23 08:07:04 51°20.877 3°0.9 75.7 13 70 11.2
2007-04-23 08:07:09 51°20.883 3°0.927 75.7 13 69 11.1
2007-04-23 08:07:14 51°20.889 3°0.954 75.2 13 71 11.1
2007-04-23 08:07:19 51°20.895 3°0.981 75.3 13 70 11.1
2007-04-23 08:07:24 51°20.901 3°1.008 75.6 12.9 71 11.1
2007-04-23 08:07:29 51°20.907 3°1.035 75.8 13 70 11.1
2007-04-23 08:07:34 51°20.913 3°1.062 76.1 13 70 11.1
2007-04-23 08:07:39 51°20.919 3°1.089 75.4 12.9 70 11.1
2007-04-23 08:07:45 51°20.926 3°1.122 75.3 12.9 72 11.1
2007-04-23 08:07:49 51°20.931 3°1.144 76 12.9 71 11.1
2007-04-23 08:07:54 51°20.936 3°1.171 76 12.9 71 11.1
2007-04-23 08:07:59 51°20.943 3°1.198 75.6 12.9 70 11.1
2007-04-23 08:08:04 51°20.949 3°1.225 75.2 12.9 70 11.1
2007-04-23 08:08:09 51°20.955 3°1.251 74.9 12.9 70 11.1
2007-04-23 08:08:14 51°20.961 3°1.278 74.7 12.9 70 11
2007-04-23 08:08:19 51°20.967 3°1.305 75.2 12.9 70 11.1